createdAt,value
2018-06-24T00:00:45.982Z,4.80
2018-06-24T00:03:13.568Z,8.10
2018-06-24T00:05:41.277Z,6.77
2018-06-24T00:08:08.936Z,4.10
2018-06-24T00:10:36.618Z,5.63
2018-06-24T00:13:04.204Z,7.97
2018-06-24T00:15:31.914Z,6.63
2018-06-24T00:17:59.576Z,7.13
2018-06-24T00:20:27.213Z,6.43
2018-06-24T00:22:54.741Z,6.53
2018-06-24T00:25:22.423Z,6.40
2018-06-24T00:27:50.136Z,8.30
2018-06-24T00:30:17.766Z,5.50
2018-06-24T00:32:45.433Z,8.30
2018-06-24T00:35:13.077Z,6.80
2018-06-24T00:37:40.783Z,7.87
2018-06-24T00:40:08.518Z,10.17
2018-06-24T00:42:36.178Z,6.73
2018-06-24T00:45:04.007Z,6.20
2018-06-24T00:47:31.691Z,7.53
2018-06-24T00:49:59.392Z,9.03
2018-06-24T00:52:27.063Z,8.37
2018-06-24T00:54:54.626Z,5.90
2018-06-24T00:57:22.246Z,5.77
2018-06-24T01:00:01.228Z,7.03
2018-06-24T01:02:28.943Z,7.80
2018-06-24T01:04:56.468Z,7.43
2018-06-24T01:07:24.087Z,9.23
2018-06-24T01:09:51.754Z,9.47
2018-06-24T01:12:19.278Z,9.13
2018-06-24T01:14:46.866Z,7.80
2018-06-24T01:17:14.528Z,6.70
2018-06-24T01:19:42.163Z,8.63
2018-06-24T01:22:09.689Z,9.47
2018-06-24T01:24:37.364Z,8.77
2018-06-24T01:27:04.971Z,5.93
2018-06-24T01:29:32.607Z,10.13
2018-06-24T01:32:00.141Z,9.10
2018-06-24T01:34:27.816Z,10.10
2018-06-24T01:36:55.519Z,6.37
2018-06-24T01:39:23.188Z,9.23
2018-06-24T01:41:50.841Z,8.10
2018-06-24T01:44:18.483Z,9.50
2018-06-24T01:46:46.229Z,7.47
2018-06-24T01:49:13.732Z,10.40
2018-06-24T01:51:41.389Z,7.57
2018-06-24T01:54:09.061Z,10.00
2018-06-24T01:56:36.567Z,11.13
2018-06-24T01:59:04.291Z,7.90
2018-06-24T02:01:31.892Z,7.53
2018-06-24T02:03:59.547Z,9.23
2018-06-24T02:06:27.217Z,8.70
2018-06-24T02:08:54.918Z,8.23
2018-06-24T02:11:22.472Z,8.50
2018-06-24T02:13:50.147Z,7.27
2018-06-24T02:16:17.788Z,9.90
2018-06-24T02:18:45.303Z,7.00
2018-06-24T02:21:12.952Z,9.47
2018-06-24T02:23:40.459Z,10.43
2018-06-24T02:26:08.239Z,7.63
2018-06-24T02:28:36.209Z,6.50
2018-06-24T02:31:03.910Z,8.10
2018-06-24T02:33:31.509Z,6.87
2018-06-24T02:35:59.077Z,12.07
2018-06-24T02:38:26.579Z,10.23
2018-06-24T02:40:54.217Z,7.70
2018-06-24T02:43:21.807Z,9.07
2018-06-24T02:45:49.447Z,11.80
2018-06-24T02:48:16.996Z,7.77
2018-06-24T02:50:44.513Z,7.57
2018-06-24T02:53:12.182Z,7.10
2018-06-24T02:55:39.789Z,6.33
2018-06-24T02:58:07.475Z,7.50
2018-06-24T03:00:35.049Z,7.57
2018-06-24T03:03:02.607Z,9.20
2018-06-24T03:05:30.204Z,8.67
2018-06-24T03:07:57.913Z,10.10
2018-06-24T03:10:25.551Z,8.83
2018-06-24T03:12:53.092Z,7.07
2018-06-24T03:15:20.645Z,6.30
2018-06-24T03:17:48.271Z,6.77
2018-06-24T03:20:15.980Z,10.70
2018-06-24T03:22:43.640Z,5.50
2018-06-24T03:25:11.231Z,7.50
2018-06-24T03:27:38.886Z,8.93
2018-06-24T03:30:06.612Z,10.07
2018-06-24T03:32:34.270Z,9.57
2018-06-24T03:35:02.066Z,7.70
2018-06-24T03:37:29.614Z,7.70
2018-06-24T03:39:57.279Z,8.63
2018-06-24T03:42:24.914Z,9.27
2018-06-24T03:45:01.984Z,8.03
2018-06-24T03:47:29.595Z,6.67
2018-06-24T03:49:57.228Z,6.63
2018-06-24T03:52:24.867Z,10.60
2018-06-24T03:54:52.408Z,11.57
2018-06-24T03:57:20.073Z,6.27
2018-06-24T03:59:47.585Z,13.50
2018-06-24T04:02:15.207Z,11.70
2018-06-24T04:04:42.883Z,15.47
2018-06-24T04:07:10.537Z,19.70
2018-06-24T04:09:38.187Z,15.70
2018-06-24T04:12:05.883Z,9.13
2018-06-24T04:14:33.517Z,9.07
2018-06-24T04:17:01.042Z,7.33
2018-06-24T04:19:28.702Z,7.33
2018-06-24T04:21:56.243Z,6.33
2018-06-24T04:24:23.888Z,6.30
2018-06-24T04:26:51.547Z,6.00
2018-06-24T04:29:19.238Z,6.73
2018-06-24T04:31:46.916Z,8.60
2018-06-24T04:34:14.557Z,7.70
2018-06-24T04:36:42.088Z,7.13
2018-06-24T04:39:10.546Z,8.13
2018-06-24T04:41:38.229Z,8.17
2018-06-24T04:44:05.915Z,8.57
2018-06-24T04:46:33.569Z,6.13
2018-06-24T04:49:01.473Z,5.53
2018-06-24T04:51:29.235Z,7.17
2018-06-24T04:53:57.078Z,9.37
2018-06-24T04:56:24.655Z,8.40
2018-06-24T04:58:52.290Z,8.10
2018-06-24T05:01:20.137Z,8.20
2018-06-24T05:03:47.788Z,6.47
2018-06-24T05:06:15.334Z,8.10
2018-06-24T05:08:42.959Z,11.73
2018-06-24T05:11:10.654Z,9.67
2018-06-24T05:13:38.755Z,10.23
2018-06-24T05:16:06.381Z,7.40
2018-06-24T05:18:34.082Z,8.97
2018-06-24T05:34:01.249Z,8.57
2018-06-24T05:36:28.887Z,9.77
2018-06-24T05:38:56.543Z,12.97
2018-06-24T05:41:24.058Z,8.57
2018-06-24T05:43:51.788Z,10.13
2018-06-24T05:46:19.356Z,8.30
2018-06-24T05:48:46.917Z,7.97
2018-06-24T05:51:14.543Z,9.40
2018-06-24T05:53:42.230Z,11.70
2018-06-24T05:56:09.789Z,11.30
2018-06-24T05:58:37.469Z,10.40
2018-06-24T06:01:05.212Z,6.23
2018-06-24T06:03:32.869Z,11.47
2018-06-24T06:06:00.531Z,9.80
2018-06-24T06:08:28.167Z,7.77
2018-06-24T06:10:55.894Z,9.13
2018-06-24T06:13:23.519Z,8.17
2018-06-24T06:15:51.253Z,7.07
2018-06-24T06:18:19.471Z,13.30
2018-06-24T06:20:47.160Z,8.67
2018-06-24T06:23:15.424Z,10.70
2018-06-24T06:25:43.131Z,11.30
2018-06-24T06:28:10.812Z,14.63
2018-06-24T06:30:38.393Z,8.90
2018-06-24T06:33:05.975Z,9.73
2018-06-24T06:35:33.644Z,7.40
2018-06-24T06:38:01.404Z,11.13
2018-06-24T06:40:29.079Z,10.10
2018-06-24T06:42:56.799Z,9.63
2018-06-24T06:45:24.528Z,12.00
2018-06-24T06:47:52.150Z,10.00
2018-06-24T06:50:19.851Z,9.13
2018-06-24T06:52:47.428Z,13.17
2018-06-24T06:55:15.104Z,12.20
2018-06-24T06:57:42.717Z,8.43
2018-06-24T07:00:10.467Z,8.30
2018-06-24T07:02:38.133Z,9.17
2018-06-24T07:05:05.784Z,11.47
2018-06-24T07:07:33.359Z,8.10
2018-06-24T07:10:00.928Z,10.73
2018-06-24T07:12:28.486Z,9.93
2018-06-24T07:14:56.155Z,11.00
2018-06-24T07:17:23.786Z,8.07
2018-06-24T07:19:51.540Z,10.27
2018-06-24T07:22:19.069Z,9.57
2018-06-24T07:24:46.763Z,6.93
2018-06-24T07:27:15.101Z,9.03
2018-06-24T07:29:43.469Z,8.00
2018-06-24T07:32:11.107Z,8.30
2018-06-24T07:34:40.245Z,7.30
2018-06-24T07:37:07.910Z,8.33
2018-06-24T07:39:35.590Z,9.40
2018-06-24T07:42:03.718Z,6.00
2018-06-24T07:44:31.409Z,7.10
2018-06-24T07:46:59.134Z,7.30
2018-06-24T07:49:26.646Z,6.00
2018-06-24T07:51:54.225Z,7.33
2018-06-24T07:54:22.371Z,6.93
2018-06-24T07:56:49.951Z,9.07
2018-06-24T07:59:17.481Z,7.27
2018-06-24T08:01:45.284Z,7.70
2018-06-24T08:04:13.076Z,5.27
2018-06-24T08:06:41.564Z,11.50
2018-06-24T08:09:11.016Z,8.20
2018-06-24T08:11:39.731Z,9.77
2018-06-24T08:14:07.329Z,8.57
2018-06-24T08:16:35.657Z,7.13
2018-06-24T08:19:03.724Z,8.10
2018-06-24T08:21:31.404Z,7.17
2018-06-24T08:23:59.287Z,8.90
2018-06-24T08:26:26.821Z,7.60
2018-06-24T08:28:54.500Z,8.37
2018-06-24T08:31:22.206Z,8.50
2018-06-24T08:33:49.771Z,11.33
2018-06-24T08:36:17.453Z,8.30
2018-06-24T08:38:45.806Z,7.83
2018-06-24T08:41:13.580Z,9.20
2018-06-24T08:43:41.214Z,7.67
2018-06-24T08:46:08.859Z,8.20
2018-06-24T08:48:37.440Z,9.97
2018-06-24T08:51:05.304Z,6.60
2018-06-24T08:53:32.985Z,7.13
2018-06-24T08:56:00.653Z,8.57
2018-06-24T08:58:28.345Z,9.13
2018-06-24T09:00:56.066Z,9.67
2018-06-24T09:03:23.676Z,9.13
2018-06-24T09:05:52.086Z,5.77
2018-06-24T09:08:19.670Z,7.97
2018-06-24T09:10:47.276Z,7.43
2018-06-24T09:13:14.805Z,7.07
2018-06-24T09:15:42.589Z,7.33
2018-06-24T09:18:10.098Z,6.40
2018-06-24T09:20:37.751Z,7.23
2018-06-24T09:23:05.525Z,7.23
2018-06-24T09:25:33.246Z,9.57
2018-06-24T09:28:01.017Z,8.00
2018-06-24T09:30:31.131Z,7.50
2018-06-24T09:32:59.161Z,5.90
2018-06-24T09:35:26.815Z,4.40
2018-06-24T09:37:58.205Z,7.10
2018-06-24T09:40:25.871Z,5.90
2018-06-24T09:42:54.816Z,7.27
2018-06-24T09:45:22.443Z,7.73
2018-06-24T09:47:50.010Z,7.53
2018-06-24T09:50:27.096Z,6.40
2018-06-24T09:52:54.762Z,9.00
2018-06-24T09:55:22.362Z,5.77
2018-06-24T09:57:50.077Z,6.10
2018-06-24T10:00:23.265Z,7.50
2018-06-24T10:02:51.975Z,8.03
2018-06-24T10:05:19.975Z,10.87
2018-06-24T10:07:47.602Z,7.77
2018-06-24T10:10:15.450Z,5.87
2018-06-24T10:12:43.165Z,7.00
2018-06-24T10:15:10.872Z,5.63
2018-06-24T10:17:38.840Z,6.83
2018-06-24T10:20:06.617Z,6.90
2018-06-24T10:22:34.217Z,3.67
2018-06-24T10:25:01.726Z,7.67
2018-06-24T10:27:29.406Z,6.00
2018-06-24T10:29:57.321Z,6.90
2018-06-24T10:32:25.031Z,7.83
2018-06-24T10:34:52.926Z,5.37
2018-06-24T10:37:20.511Z,6.27
2018-06-24T10:39:48.051Z,6.07
2018-06-24T10:44:42.750Z,6.83
2018-06-24T10:47:10.517Z,5.30
2018-06-24T10:49:38.185Z,5.97
2018-06-24T10:52:05.846Z,5.13
2018-06-24T10:54:33.612Z,4.97
2018-06-24T10:57:01.382Z,6.50
2018-06-24T10:59:29.137Z,7.00
2018-06-24T11:01:56.917Z,6.33
2018-06-24T11:04:24.433Z,7.47
2018-06-24T11:06:52.071Z,6.90
2018-06-24T11:09:19.756Z,6.03
2018-06-24T11:11:47.426Z,6.53
2018-06-24T11:14:15.110Z,4.57
2018-06-24T11:16:42.822Z,4.60
2018-06-24T11:19:10.505Z,5.30
2018-06-24T11:21:38.255Z,5.73
2018-06-24T11:24:06.378Z,6.40
2018-06-24T11:26:34.543Z,6.10
2018-06-24T11:29:02.296Z,4.80
2018-06-24T11:31:30.172Z,5.97
2018-06-24T11:33:58.706Z,5.57
2018-06-24T11:36:26.355Z,7.70
2018-06-24T11:38:54.051Z,6.43
2018-06-24T11:41:21.786Z,5.07
2018-06-24T11:43:49.427Z,7.27
2018-06-24T11:46:17.160Z,6.27
2018-06-24T11:48:44.938Z,7.70
2018-06-24T11:51:12.656Z,7.23
2018-06-24T11:53:40.253Z,7.27
2018-06-24T11:56:07.967Z,4.37
2018-06-24T11:58:35.635Z,6.57
2018-06-24T12:01:03.426Z,7.40
2018-06-24T12:03:31.134Z,8.63
2018-06-24T12:05:58.680Z,6.63
2018-06-24T12:08:26.700Z,7.27
2018-06-24T12:10:54.305Z,5.17
2018-06-24T12:13:21.961Z,6.17
2018-06-24T12:15:49.668Z,4.93
2018-06-24T12:18:17.335Z,5.83
2018-06-24T12:20:45.003Z,9.23
2018-06-24T12:23:12.581Z,6.10
2018-06-24T12:25:40.286Z,6.83
2018-06-24T12:28:07.880Z,7.20
2018-06-24T12:30:35.536Z,8.07
2018-06-24T12:33:03.263Z,5.80
2018-06-24T12:35:30.964Z,10.73
2018-06-24T12:37:58.670Z,7.77
2018-06-24T12:40:33.254Z,5.73
2018-06-24T12:43:02.263Z,7.03
2018-06-24T12:45:30.182Z,6.80
2018-06-24T12:47:58.546Z,7.83
2018-06-24T12:50:26.263Z,6.47
2018-06-24T12:52:54.478Z,6.23
2018-06-24T12:55:22.208Z,5.73
2018-06-24T12:57:49.978Z,6.37
2018-06-24T13:00:18.207Z,9.97
2018-06-24T13:02:45.296Z,6.30
2018-06-24T13:05:13.021Z,7.63
2018-06-24T13:07:40.757Z,6.87
2018-06-24T13:10:08.910Z,5.90
2018-06-24T13:12:36.452Z,5.93
2018-06-24T13:15:04.746Z,7.10
2018-06-24T13:17:32.388Z,6.70
2018-06-24T13:20:00.102Z,5.17
2018-06-24T13:22:27.648Z,6.60
2018-06-24T13:24:55.342Z,8.10
2018-06-24T13:27:23.076Z,7.83
2018-06-24T13:29:50.736Z,5.07
2018-06-24T13:32:18.438Z,3.90
2018-06-24T13:34:46.062Z,6.33
2018-06-24T13:37:13.756Z,5.37
2018-06-24T13:39:41.485Z,7.87
2018-06-24T13:42:09.187Z,5.17
2018-06-24T13:44:36.943Z,5.10
2018-06-24T13:47:04.568Z,4.73
2018-06-24T13:49:32.137Z,4.67
2018-06-24T13:51:59.816Z,4.27
2018-06-24T13:54:27.453Z,5.63
2018-06-24T13:56:55.315Z,4.43
2018-06-24T13:59:22.838Z,4.90
2018-06-24T14:01:50.578Z,5.13
2018-06-24T14:04:18.247Z,4.87
2018-06-24T14:06:45.762Z,4.97
2018-06-24T14:09:13.392Z,7.07
2018-06-24T14:11:41.049Z,3.70
2018-06-24T14:14:09.459Z,5.10
2018-06-24T14:16:37.109Z,6.30
2018-06-24T14:19:04.823Z,8.40
2018-06-24T14:21:32.479Z,2.17
2018-06-24T14:24:00.198Z,2.53
2018-06-24T14:26:27.877Z,3.37
2018-06-24T14:28:55.514Z,6.07
2018-06-24T14:31:23.176Z,4.50
2018-06-24T14:33:50.826Z,3.00
2018-06-24T14:36:18.481Z,5.23
2018-06-24T14:38:46.122Z,4.63
2018-06-24T14:41:14.107Z,7.23
2018-06-24T14:43:41.861Z,5.03
2018-06-24T14:46:09.489Z,5.63
2018-06-24T14:48:37.452Z,5.40
2018-06-24T14:51:05.438Z,6.17
2018-06-24T14:53:33.081Z,5.87
2018-06-24T14:56:00.788Z,4.23
2018-06-24T14:58:28.443Z,5.90
2018-06-24T15:00:56.087Z,3.47
2018-06-24T15:03:23.749Z,4.80
2018-06-24T15:05:51.428Z,3.57
2018-06-24T15:08:19.077Z,3.50
2018-06-24T15:10:46.735Z,5.73
2018-06-24T15:13:14.383Z,4.10
2018-06-24T15:15:42.108Z,3.80
2018-06-24T15:18:09.798Z,3.83
2018-06-24T15:20:37.383Z,2.97
2018-06-24T15:23:05.459Z,4.77
2018-06-24T15:25:33.217Z,5.60
2018-06-24T15:28:00.848Z,3.40
2018-06-24T15:30:28.522Z,4.27
2018-06-24T15:32:56.244Z,3.40
2018-06-24T15:35:23.958Z,4.80
2018-06-24T15:37:51.535Z,2.50
2018-06-24T15:40:19.012Z,3.57
2018-06-24T15:42:46.601Z,4.43
2018-06-24T15:45:14.134Z,4.27
2018-06-24T15:47:41.668Z,2.67
2018-06-24T15:50:09.204Z,6.40
2018-06-24T15:52:36.889Z,3.57
2018-06-24T15:55:04.623Z,2.83
2018-06-24T15:57:32.258Z,3.97
2018-06-24T15:59:59.931Z,3.27
2018-06-24T16:02:27.548Z,3.00
2018-06-24T16:04:55.243Z,3.83
2018-06-24T16:07:22.901Z,3.77
2018-06-24T16:09:50.591Z,2.27
2018-06-24T16:12:18.255Z,3.33
2018-06-24T16:14:45.901Z,4.13
2018-06-24T16:17:13.447Z,3.60
2018-06-24T16:19:41.083Z,3.70
2018-06-24T16:22:08.784Z,2.43
2018-06-24T16:24:36.552Z,1.97
2018-06-24T16:27:04.173Z,2.03
2018-06-24T16:29:31.790Z,1.57
2018-06-24T16:31:59.507Z,3.03
2018-06-24T16:34:27.033Z,3.40
2018-06-24T16:36:54.652Z,3.03
2018-06-24T16:39:22.299Z,1.63
2018-06-24T16:41:49.909Z,2.83
2018-06-24T16:44:17.539Z,2.30
2018-06-24T16:46:45.245Z,3.13
2018-06-24T16:49:12.776Z,3.00
2018-06-24T16:51:40.315Z,5.20
2018-06-24T16:54:08.098Z,2.97
2018-06-24T16:56:35.749Z,2.73
2018-06-24T16:59:04.368Z,4.13
2018-06-24T17:01:31.941Z,2.30
2018-06-24T17:03:59.595Z,3.10
2018-06-24T17:06:27.266Z,3.20
2018-06-24T17:08:54.961Z,3.80
2018-06-24T17:11:25.003Z,2.47
2018-06-24T17:13:55.020Z,2.27
2018-06-24T17:16:24.898Z,3.87
2018-06-24T17:18:54.449Z,3.93
2018-06-24T17:21:24.925Z,2.93
2018-06-24T17:24:05.127Z,4.27
2018-06-24T17:26:36.668Z,4.07
2018-06-24T17:29:04.603Z,3.83
2018-06-24T17:31:32.212Z,2.10
2018-06-24T17:33:59.838Z,4.53
2018-06-24T17:36:27.598Z,4.30
2018-06-24T17:38:55.264Z,1.73
2018-06-24T17:41:22.951Z,3.50
2018-06-24T17:43:50.643Z,3.53
2018-06-24T17:46:18.313Z,3.47
2018-06-24T17:48:45.858Z,3.53
2018-06-24T17:51:13.561Z,3.47
2018-06-24T17:53:41.188Z,3.77
2018-06-24T17:56:08.707Z,2.73
2018-06-24T17:58:36.309Z,1.97
2018-06-24T18:01:04.179Z,2.20
2018-06-24T18:03:31.800Z,2.23
2018-06-24T18:06:00.243Z,4.30
2018-06-24T18:08:27.878Z,3.63
2018-06-24T18:10:56.504Z,3.07
2018-06-24T18:13:24.133Z,4.77
2018-06-24T18:15:51.880Z,3.67
2018-06-24T18:18:19.454Z,3.73
2018-06-24T18:20:47.125Z,5.20
2018-06-24T18:23:14.755Z,3.00
2018-06-24T18:25:42.451Z,3.83
2018-06-24T18:28:10.252Z,4.10
2018-06-24T18:30:37.824Z,3.63
2018-06-24T18:33:05.556Z,4.13
2018-06-24T18:35:33.939Z,4.70
2018-06-24T18:38:02.341Z,2.97
2018-06-24T18:40:30.540Z,2.60
2018-06-24T18:43:00.680Z,4.37
2018-06-24T18:47:56.684Z,2.97
2018-06-24T18:50:26.809Z,4.90
2018-06-24T18:52:56.034Z,4.10
2018-06-24T18:55:23.619Z,4.00
2018-06-24T18:57:53.503Z,3.67
2018-06-24T19:00:22.419Z,3.20
2018-06-24T19:02:50.335Z,3.90
2018-06-24T19:05:17.859Z,2.67
2018-06-24T19:07:48.383Z,4.17
2018-06-24T19:10:16.864Z,3.53
2018-06-24T19:12:45.295Z,3.33
2018-06-24T19:15:13.359Z,3.30
2018-06-24T19:17:41.685Z,3.40
2018-06-24T19:20:11.018Z,4.60
2018-06-24T19:22:39.573Z,6.03
2018-06-24T19:25:07.489Z,3.37
2018-06-24T19:27:35.771Z,4.97
2018-06-24T19:30:04.981Z,3.40
2018-06-24T19:32:34.148Z,5.33
2018-06-24T19:35:04.338Z,3.63
2018-06-24T19:37:34.819Z,5.23
2018-06-24T19:40:03.505Z,4.63
2018-06-24T19:42:32.501Z,4.10
2018-06-24T19:45:00.551Z,4.90
2018-06-24T19:47:31.180Z,3.80
2018-06-24T19:49:59.378Z,4.80
2018-06-24T19:52:27.589Z,5.57
2018-06-24T19:54:55.756Z,4.27
2018-06-24T19:57:24.763Z,2.67
2018-06-24T19:59:55.305Z,3.27
2018-06-24T20:02:23.869Z,4.17
2018-06-24T20:04:53.179Z,3.67
2018-06-24T20:07:22.570Z,5.07
2018-06-24T20:09:50.334Z,5.13
2018-06-24T20:12:19.666Z,5.77
2018-06-24T20:14:48.729Z,4.70
2018-06-24T20:17:16.948Z,3.60
2018-06-24T20:19:45.510Z,2.80
2018-06-24T20:22:15.049Z,4.17
2018-06-24T20:24:44.800Z,3.73
2018-06-24T20:27:14.085Z,3.77
2018-06-24T20:29:41.736Z,4.13
2018-06-24T20:32:09.328Z,4.43
2018-06-24T20:34:37.299Z,3.43
2018-06-24T20:37:05.060Z,4.20
2018-06-24T20:39:32.739Z,4.47
2018-06-24T20:42:00.361Z,3.67
2018-06-24T20:44:27.975Z,4.27
2018-06-24T20:46:55.605Z,3.63
2018-06-24T20:49:23.119Z,4.07
2018-06-24T20:51:50.759Z,4.20
2018-06-24T20:54:18.362Z,6.33
2018-06-24T20:56:46.236Z,5.33
2018-06-24T20:59:13.699Z,4.43
2018-06-24T21:01:41.452Z,4.60
2018-06-24T21:04:09.149Z,4.27
2018-06-24T21:06:36.725Z,3.80
2018-06-24T21:09:06.209Z,4.53
2018-06-24T21:11:33.855Z,6.83
2018-06-24T21:14:01.362Z,4.37
2018-06-24T21:16:28.991Z,5.73
2018-06-24T21:18:56.665Z,5.33
2018-06-24T21:21:24.144Z,7.63
2018-06-24T21:23:51.791Z,7.63
2018-06-24T21:26:19.368Z,5.97
2018-06-24T21:28:47.018Z,7.43
2018-06-24T21:31:14.599Z,6.23
2018-06-24T21:33:42.165Z,6.60
2018-06-24T21:36:09.778Z,6.47
2018-06-24T21:38:37.374Z,7.90
2018-06-24T21:41:05.011Z,6.37
2018-06-24T21:43:32.536Z,5.20
2018-06-24T21:46:00.066Z,6.83
2018-06-24T21:48:27.679Z,8.17
2018-06-24T21:50:55.315Z,8.07
2018-06-24T21:53:22.967Z,5.07
2018-06-24T21:55:51.280Z,5.90
2018-06-24T21:58:19.086Z,3.43
2018-06-24T22:00:46.628Z,4.63
2018-06-24T22:03:14.128Z,8.43
2018-06-24T22:05:41.629Z,7.47
2018-06-24T22:08:09.639Z,5.30
2018-06-24T22:10:37.193Z,8.13
2018-06-24T22:13:05.675Z,5.77
2018-06-24T22:15:33.500Z,6.23
2018-06-24T22:18:01.174Z,5.63
2018-06-24T22:20:29.197Z,5.73
2018-06-24T22:22:57.151Z,6.57
2018-06-24T22:25:24.866Z,7.37
2018-06-24T22:27:52.679Z,4.40
2018-06-24T22:30:20.286Z,9.13
2018-06-24T22:32:48.206Z,6.40
2018-06-24T22:35:15.831Z,7.40
2018-06-24T22:37:43.766Z,6.13
2018-06-24T22:40:12.278Z,9.97
2018-06-24T22:42:40.051Z,10.07
2018-06-24T22:45:08.035Z,6.10
2018-06-24T22:47:35.549Z,8.03
2018-06-24T22:50:03.299Z,6.83
2018-06-24T22:52:31.295Z,6.47
2018-06-24T22:54:59.750Z,10.67
2018-06-24T22:57:27.285Z,9.13
2018-06-24T23:00:15.669Z,9.57
2018-06-24T23:02:43.744Z,8.07
2018-06-24T23:05:11.904Z,8.13
2018-06-24T23:07:40.654Z,6.03
2018-06-24T23:10:08.229Z,10.17
2018-06-24T23:12:35.741Z,9.80
2018-06-24T23:15:04.090Z,8.43
2018-06-24T23:17:31.620Z,8.10
2018-06-24T23:19:59.070Z,6.97
2018-06-24T23:22:26.666Z,7.17
2018-06-24T23:24:54.303Z,8.47
2018-06-24T23:27:21.913Z,7.07
2018-06-24T23:29:49.790Z,6.97
2018-06-24T23:32:17.363Z,10.10
2018-06-24T23:34:45.084Z,9.17
2018-06-24T23:37:12.681Z,7.63
2018-06-24T23:39:40.265Z,11.00
2018-06-24T23:42:08.076Z,9.50
2018-06-24T23:44:35.958Z,8.73
2018-06-24T23:47:03.709Z,8.23
2018-06-24T23:49:31.769Z,9.20
2018-06-24T23:51:59.614Z,8.67
2018-06-24T23:54:27.365Z,7.50
2018-06-24T23:56:55.049Z,9.50
2018-06-24T23:59:22.735Z,9.23
